Time;durP1;ratioP1;P1;durP2;ratioP2;P2;SDS_P1;SDS_P2;PMS_P1;PMS_P2;Temp;Humidity;BMP_temperature;BMP_pressure;BME280_temperature;BME280_humidity;BME280_pressure;Samples;Min_cycle;Max_cycle;Signal;HPM_P1;HPM_P2
2022/08/30 00:01:04;;;;;;;;;;;;;;;20.36;72.85;99222.48;1646034;85;20087;-70
2022/08/30 00:03:46;;;;;;;;;;;;;;;20.34;72.84;99224.05;1646238;86;20103;-68
2022/08/30 00:06:14;;;;;;;;;;;;;;;20.30;72.72;99222.89;1646280;86;20092;-67
2022/08/30 00:08:41;;;;;;;;;;;;;;;20.25;72.66;99222.27;1646336;86;20128;-69
2022/08/30 00:11:11;;;;;;;;;;;;;;;20.20;72.52;99228.89;1645990;86;21080;-69
2022/08/30 00:13:38;;;;;;;;;;;;;;;20.16;72.63;99228.23;1645194;86;20091;-69
2022/08/30 00:16:05;;;;;;;;;;;;;;;20.10;72.54;99223.80;1646341;85;20087;-68
2022/08/30 00:18:33;;;;;;;;;;;;;;;20.04;72.44;99230.97;1645952;85;20152;-68
2022/08/30 00:21:00;;;;;;;;;;;;;;;20.01;72.51;99229.26;1646106;85;20104;-68
2022/08/30 00:23:27;;;;;;;;;;;;;;;19.97;72.37;99232.16;1645859;86;21184;-68
2022/08/30 00:25:53;;;;;;;;;;;;;;;19.91;72.28;99240.66;1646100;86;20139;-68
2022/08/30 00:28:20;;;;;;;;;;;;;;;19.86;72.33;99240.55;1646379;85;20136;-68
2022/08/30 00:30:47;;;;;;;;;;;;;;;19.83;72.28;99245.06;1646347;85;20091;-68
2022/08/30 00:33:14;;;;;;;;;;;;;;;19.78;72.26;99244.13;1645803;85;20112;-68
2022/08/30 00:35:40;;;;;;;;;;;;;;;19.72;72.25;99243.18;1646454;86;21487;-68
2022/08/30 00:38:07;;;;;;;;;;;;;;;19.67;72.23;99240.37;1646293;85;20092;-67
2022/08/30 00:40:34;;;;;;;;;;;;;;;19.60;72.30;99240.50;1646372;85;20116;-68
2022/08/30 00:43:02;;;;;;;;;;;;;;;19.55;72.35;99241.70;1646151;85;20647;-68
2022/08/30 00:45:30;;;;;;;;;;;;;;;19.54;72.33;99243.29;1620423;87;20504;-67
2022/08/30 00:47:57;;;;;;;;;;;;;;;19.50;72.31;99246.17;1645675;86;21156;-68
2022/08/30 00:50:26;;;;;;;;;;;;;;;19.47;72.16;99250.16;1645428;85;20472;-67
2022/08/30 00:52:54;;;;;;;;;;;;;;;19.46;71.95;99254.42;1646104;86;20425;-68
2022/08/30 00:55:21;;;;;;;;;;;;;;;19.43;71.76;99258.93;1646193;86;20160;-68
2022/08/30 00:57:47;;;;;;;;;;;;;;;19.41;71.50;99266.44;1646372;85;20171;-68
2022/08/30 01:00:14;;;;;;;;;;;;;;;19.39;71.30;99263.16;1620339;86;21015;-68
2022/08/30 01:02:41;;;;;;;;;;;;;;;19.36;71.06;99264.94;1647107;85;20188;-68
2022/08/30 01:05:09;;;;;;;;;;;;;;;19.34;70.84;99267.05;1647589;85;20080;-68
2022/08/30 01:07:37;;;;;;;;;;;;;;;19.34;70.70;99268.39;1649096;85;20665;-67
2022/08/30 01:10:04;;;;;;;;;;;;;;;19.35;70.55;99268.67;1649128;85;20116;-67
2022/08/30 01:12:31;;;;;;;;;;;;;;;19.35;70.40;99272.20;1648572;85;21319;-67
2022/08/30 01:14:57;;;;;;;;;;;;;;;19.35;70.40;99270.02;1648677;85;20434;-67
2022/08/30 01:17:24;;;;;;;;;;;;;;;19.36;70.44;99276.55;1649160;85;20127;-66
2022/08/30 01:20:06;;;;;;;;;;;;;;;19.40;70.46;99276.40;1650352;85;20537;-67
2022/08/30 01:22:39;;;;;;;;;;;;;;;19.43;70.54;99277.81;1649453;85;20136;-67
2022/08/30 01:25:07;;;;;;;;;;;;;;;19.48;70.48;99281.98;1649282;85;21180;-67
2022/08/30 01:27:36;;;;;;;;;;;;;;;19.51;70.47;99276.13;1649145;85;20131;-67
2022/08/30 01:30:04;;;;;;;;;;;;;;;19.55;70.37;99279.47;1648381;85;20127;-67
2022/08/30 01:32:31;;;;;;;;;;;;;;;19.58;70.31;99278.18;1648687;85;20103;-67
2022/08/30 01:37:44;;;;;;;;;;;;;;;19.63;70.04;99276.43;1630001;86;21133;-67
2022/08/30 01:40:12;;;;;;;;;;;;;;;19.65;69.77;99270.30;1667976;84;20088;-67
2022/08/30 01:42:38;;;;;;;;;;;;;;;19.67;69.70;99272.75;1638526;86;20082;-67
2022/08/30 01:45:05;;;;;;;;;;;;;;;19.67;69.41;99268.17;1671754;84;20103;-67
2022/08/30 01:47:32;;;;;;;;;;;;;;;19.65;69.18;99265.42;1691746;84;20100;-70
2022/08/30 01:49:58;;;;;;;;;;;;;;;19.64;69.06;99263.24;1669823;84;21139;-70
2022/08/30 01:52:24;;;;;;;;;;;;;;;19.61;68.81;99258.31;1639536;86;20094;-66
2022/08/30 01:54:51;;;;;;;;;;;;;;;19.56;68.62;99260.06;1668899;84;20278;-69
2022/08/30 01:57:20;;;;;;;;;;;;;;;19.50;68.50;99257.77;1632949;86;20104;-69
2022/08/30 01:59:48;;;;;;;;;;;;;;;19.41;68.45;99255.13;1656535;84;20120;-70
2022/08/30 02:02:18;;;;;;;;;;;;;;;19.31;68.53;99252.67;1639674;86;21765;-69
2022/08/30 02:04:45;;;;;;;;;;;;;;;19.22;68.64;99258.92;1683160;84;20089;-70
2022/08/30 02:07:11;;;;;;;;;;;;;;;19.14;68.70;99255.20;1678092;84;20419;-69
2022/08/30 02:09:38;;;;;;;;;;;;;;;19.07;68.86;99256.66;1637682;86;20204;-69
2022/08/30 02:12:06;;;;;;;;;;;;;;;19.01;68.93;99252.70;1631086;86;20156;-70
2022/08/30 02:14:34;;;;;;;;;;;;;;;18.97;69.10;99256.92;1629729;86;21152;-68
2022/08/30 02:17:01;;;;;;;;;;;;;;;18.95;69.10;99249.60;1630199;86;20534;-68
2022/08/30 02:19:28;;;;;;;;;;;;;;;18.92;69.11;99252.75;1631322;86;20128;-69
2022/08/30 02:21:54;;;;;;;;;;;;;;;18.89;69.08;99255.38;1631400;86;20184;-68
2022/08/30 02:24:21;;;;;;;;;;;;;;;18.85;69.00;99252.83;1630795;86;20122;-70
2022/08/30 02:26:47;;;;;;;;;;;;;;;18.83;68.92;99252.76;1629644;86;21163;-68
2022/08/30 02:29:14;;;;;;;;;;;;;;;18.78;68.82;99252.10;1631376;88;20152;-69
2022/08/30 02:31:40;;;;;;;;;;;;;;;18.75;68.84;99251.20;1631236;88;20132;-68
2022/08/30 02:34:06;;;;;;;;;;;;;;;18.70;68.82;99252.94;1631387;88;20148;-68
2022/08/30 02:36:33;;;;;;;;;;;;;;;18.65;68.83;99256.84;1632284;87;20129;-67
2022/08/30 02:38:59;;;;;;;;;;;;;;;18.60;68.95;99253.49;1667801;84;21781;-68
2022/08/30 02:41:26;;;;;;;;;;;;;;;18.57;69.00;99254.45;1668887;84;20105;-68
2022/08/30 02:43:57;;;;;;;;;;;;;;;18.54;68.94;99258.42;1662289;85;20193;-69
2022/08/30 02:46:20;;;;;;;;;;;;;;;18.50;68.87;99263.98;1659389;85;20099;-68
2022/08/30 02:48:47;;;;;;;;;;;;;;;18.45;68.84;99264.64;1655280;85;20090;-71
2022/08/30 02:51:13;;;;;;;;;;;;;;;18.43;68.78;99261.33;1667608;84;21253;-68
2022/08/30 02:53:41;;;;;;;;;;;;;;;18.39;68.68;99265.53;1667647;84;20428;-68
2022/08/30 02:56:07;;;;;;;;;;;;;;;18.36;68.67;99270.02;1667737;84;20743;-68
2022/08/30 02:58:34;;;;;;;;;;;;;;;18.34;68.59;99272.12;1650009;84;20095;-67
2022/08/30 03:01:01;;;;;;;;;;;;;;;18.32;68.57;99275.56;1655748;85;20111;-67
2022/08/30 03:03:28;;;;;;;;;;;;;;;18.29;68.60;99273.31;1655798;85;21162;-68
2022/08/30 03:05:54;;;;;;;;;;;;;;;18.25;68.71;99275.34;1648464;84;20250;-67
2022/08/30 03:08:21;;;;;;;;;;;;;;;18.22;68.64;99278.48;1676490;84;20139;-68
2022/08/30 03:10:48;;;;;;;;;;;;;;;18.16;68.60;99280.20;1667161;84;20101;-69
2022/08/30 03:13:15;;;;;;;;;;;;;;;18.12;68.69;99278.98;1667615;84;20129;-68
2022/08/30 03:15:42;;;;;;;;;;;;;;;18.08;68.61;99280.48;1667640;84;21168;-69
2022/08/30 03:18:09;;;;;;;;;;;;;;;18.07;68.51;99276.14;1665360;84;20125;-68
2022/08/30 03:20:37;;;;;;;;;;;;;;;18.07;68.38;99276.14;1667153;84;20129;-67
2022/08/30 03:23:04;;;;;;;;;;;;;;;18.06;68.22;99279.89;1667622;84;20093;-68
2022/08/30 03:25:32;;;;;;;;;;;;;;;18.08;68.07;99285.04;1666583;84;20450;-68
2022/08/30 03:27:59;;;;;;;;;;;;;;;18.07;68.03;99285.55;1680162;84;21132;-68
2022/08/30 03:30:25;;;;;;;;;;;;;;;18.07;68.01;99281.52;1667244;84;20554;-68
2022/08/30 03:32:51;;;;;;;;;;;;;;;18.06;67.96;99279.06;1667608;84;20422;-69
2022/08/30 03:35:18;;;;;;;;;;;;;;;18.05;68.00;99284.96;1667650;84;20778;-68
2022/08/30 03:37:45;;;;;;;;;;;;;;;18.06;67.95;99286.63;1679533;84;20136;-68
2022/08/30 03:40:13;;;;;;;;;;;;;;;18.08;67.92;99285.87;1667845;84;21791;-69
2022/08/30 03:42:40;;;;;;;;;;;;;;;18.11;67.93;99287.30;1667581;84;20089;-68
2022/08/30 03:45:07;;;;;;;;;;;;;;;18.14;67.93;99290.38;1667655;84;20159;-68
2022/08/30 03:47:33;;;;;;;;;;;;;;;18.18;67.99;99292.08;1666401;84;20470;-72
2022/08/30 03:50:00;;;;;;;;;;;;;;;18.23;67.84;99287.67;1666338;84;20125;-72
2022/08/30 03:52:26;;;;;;;;;;;;;;;18.29;67.84;99292.68;1667703;84;21202;-70
2022/08/30 03:54:52;;;;;;;;;;;;;;;18.35;67.71;99290.45;1667598;84;20112;-68
2022/08/30 03:57:19;;;;;;;;;;;;;;;18.42;67.59;99295.23;1662041;84;20079;-67
2022/08/30 03:59:45;;;;;;;;;;;;;;;18.51;67.51;99289.05;1655832;84;20138;-68
2022/08/30 04:02:12;;;;;;;;;;;;;;;18.61;67.24;99290.69;1667674;84;20114;-69
2022/08/30 04:04:38;;;;;;;;;;;;;;;18.73;67.00;99292.39;1667659;84;20567;-67
2022/08/30 04:07:05;;;;;;;;;;;;;;;18.93;66.76;99290.76;1672946;84;20116;-67
2022/08/30 04:09:31;;;;;;;;;;;;;;;19.16;66.11;99287.34;1667843;84;20117;-68
2022/08/30 04:11:59;;;;;;;;;;;;;;;19.40;65.49;99288.53;1667488;84;20101;-68
2022/08/30 04:14:25;;;;;;;;;;;;;;;19.67;64.77;99289.77;1667871;84;20426;-68
2022/08/30 04:16:52;;;;;;;;;;;;;;;19.94;64.06;99284.73;1669099;84;21142;-68
2022/08/30 04:19:18;;;;;;;;;;;;;;;20.25;63.17;99287.09;1669991;84;20153;-71
2022/08/30 04:21:44;;;;;;;;;;;;;;;20.56;62.42;99286.38;1667572;84;20106;-69
2022/08/30 04:24:11;;;;;;;;;;;;;;;20.90;61.39;99292.20;1667323;84;20855;-70
2022/08/30 04:26:38;;;;;;;;;;;;;;;21.25;60.36;99292.05;1668865;84;20104;-70
2022/08/30 04:29:04;;;;;;;;;;;;;;;21.62;59.29;99295.13;1674002;84;21124;-68
2022/08/30 04:31:30;;;;;;;;;;;;;;;21.98;58.20;99291.41;1667534;84;20102;-69
2022/08/30 04:33:57;;;;;;;;;;;;;;;22.37;56.94;99292.78;1667793;84;20429;-69
2022/08/30 04:36:23;;;;;;;;;;;;;;;22.75;55.78;99287.32;1667127;84;20117;-69
2022/08/30 04:38:50;;;;;;;;;;;;;;;23.11;54.45;99293.41;1666337;84;20106;-69
2022/08/30 04:41:17;;;;;;;;;;;;;;;23.40;53.07;99282.31;1667819;84;20609;-67
2022/08/30 04:43:44;;;;;;;;;;;;;;;23.70;52.35;99288.02;1667454;84;20511;-67
2022/08/30 04:46:12;;;;;;;;;;;;;;;24.04;51.28;99290.69;1667625;84;20435;-68
2022/08/30 04:48:38;;;;;;;;;;;;;;;24.37;50.14;99280.06;1665006;84;20208;-68
2022/08/30 04:51:06;;;;;;;;;;;;;;;24.64;49.14;99281.27;1667065;84;20097;-69
2022/08/30 04:53:33;;;;;;;;;;;;;;;24.92;48.45;99280.84;1649036;84;21292;-69
2022/08/30 04:56:00;;;;;;;;;;;;;;;25.23;47.72;99286.63;1667608;84;20447;-70
2022/08/30 04:58:26;;;;;;;;;;;;;;;25.54;46.77;99286.97;1647591;84;20116;-68
2022/08/30 05:00:52;;;;;;;;;;;;;;;25.73;46.12;99283.95;1667389;84;20102;-70
2022/08/30 05:03:19;;;;;;;;;;;;;;;25.97;45.44;99294.31;1672856;84;20430;-67
2022/08/30 05:05:49;;;;;;;;;;;;;;;26.23;44.78;99295.90;1667767;84;21200;-69
2022/08/30 05:08:18;;;;;;;;;;;;;;;26.51;44.03;99289.02;1666060;84;20089;-69
2022/08/30 05:10:46;;;;;;;;;;;;;;;26.80;43.45;99289.45;1666068;84;20118;-68
2022/08/30 05:13:13;;;;;;;;;;;;;;;27.11;42.80;99285.21;1667582;84;20156;-68
2022/08/30 05:15:39;;;;;;;;;;;;;;;27.37;42.06;99283.41;1667038;84;20189;-68
2022/08/30 05:18:07;;;;;;;;;;;;;;;27.67;41.58;99270.61;1675251;84;21173;-70
2022/08/30 05:20:34;;;;;;;;;;;;;;;27.98;40.85;99275.52;1668746;84;20161;-70
2022/08/30 05:23:00;;;;;;;;;;;;;;;28.30;40.18;99278.22;1668972;84;20126;-69
2022/08/30 05:25:29;;;;;;;;;;;;;;;28.54;39.55;99273.57;1667589;84;20078;-67
2022/08/30 05:27:55;;;;;;;;;;;;;;;28.80;39.10;99279.02;1666177;84;20152;-70
2022/08/30 05:30:22;;;;;;;;;;;;;;;29.10;38.66;99271.74;1666907;84;21109;-68
2022/08/30 05:32:48;;;;;;;;;;;;;;;29.45;38.02;99280.02;1666833;84;20085;-68
2022/08/30 05:35:15;;;;;;;;;;;;;;;29.75;37.29;99273.20;1672187;84;20100;-69
2022/08/30 05:37:41;;;;;;;;;;;;;;;30.00;36.83;99271.98;1661938;84;20118;-68
2022/08/30 05:40:09;;;;;;;;;;;;;;;30.24;36.15;99271.27;1655420;85;20469;-68
2022/08/30 05:42:36;;;;;;;;;;;;;;;30.46;35.73;99284.56;1655457;85;21325;-68
2022/08/30 05:45:03;;;;;;;;;;;;;;;30.74;35.20;99279.86;1658600;85;20422;-67
2022/08/30 05:47:30;;;;;;;;;;;;;;;31.06;34.68;99281.67;1654517;85;20106;-69
2022/08/30 05:49:56;;;;;;;;;;;;;;;31.38;34.19;99280.66;1674407;85;20696;-68
2022/08/30 05:52:23;;;;;;;;;;;;;;;31.64;33.61;99282.52;1655276;85;20158;-68
2022/08/30 05:54:54;;;;;;;;;;;;;;;31.88;33.19;99281.38;1653707;85;22157;-69
2022/08/30 05:57:21;;;;;;;;;;;;;;;32.08;32.71;99283.61;1646411;85;20324;-67
2022/08/30 05:59:47;;;;;;;;;;;;;;;32.19;32.43;99288.54;1644126;85;20098;-67
2022/08/30 06:02:14;;;;;;;;;;;;;;;32.37;32.13;99289.42;1657597;85;20106;-69
2022/08/30 06:04:40;;;;;;;;;;;;;;;32.59;31.79;99287.20;1638469;85;20435;-68
2022/08/30 06:07:06;;;;;;;;;;;;;;;32.84;31.54;99279.00;1654737;85;21171;-68
2022/08/30 06:09:33;;;;;;;;;;;;;;;33.09;31.16;99280.74;1655208;85;20129;-67
2022/08/30 06:12:01;;;;;;;;;;;;;;;33.32;30.69;99286.38;1655462;85;20147;-69
2022/08/30 06:14:27;;;;;;;;;;;;;;;33.49;30.39;99279.47;1655403;85;20105;-67
2022/08/30 06:16:55;;;;;;;;;;;;;;;33.73;30.17;99288.08;1668004;85;20106;-68
2022/08/30 06:19:22;;;;;;;;;;;;;;;33.94;29.90;99288.20;1655321;85;21870;-69
2022/08/30 06:21:48;;;;;;;;;;;;;;;34.16;29.50;99289.38;1655163;85;20443;-68
2022/08/30 06:24:15;;;;;;;;;;;;;;;34.44;29.23;99289.77;1654961;85;20090;-69
2022/08/30 06:26:43;;;;;;;;;;;;;;;34.66;28.73;99296.42;1665246;85;20119;-70
2022/08/30 06:29:11;;;;;;;;;;;;;;;34.81;28.50;99301.38;1654054;85;20175;-70
2022/08/30 06:31:37;;;;;;;;;;;;;;;34.97;28.27;99303.80;1636436;86;21172;-68
2022/08/30 06:34:04;;;;;;;;;;;;;;;35.11;27.96;99299.44;1654531;85;20125;-69
2022/08/30 06:36:31;;;;;;;;;;;;;;;35.22;27.86;99301.45;1663990;85;20423;-69
2022/08/30 06:38:57;;;;;;;;;;;;;;;35.40;27.79;99298.00;1665402;84;20202;-71
2022/08/30 06:41:28;;;;;;;;;;;;;;;35.65;27.53;99298.93;1667063;84;20201;-70
2022/08/30 06:43:54;;;;;;;;;;;;;;;35.97;27.17;99299.52;1667089;84;21156;-71
2022/08/30 06:46:23;;;;;;;;;;;;;;;36.20;26.80;99300.75;1664912;84;20117;-71
2022/08/30 06:48:50;;;;;;;;;;;;;;;36.39;26.55;99296.86;1666533;84;20173;-70
2022/08/30 06:51:22;;;;;;;;;;;;;;;36.66;26.22;99299.53;1667176;84;20650;-70
2022/08/30 06:53:49;;;;;;;;;;;;;;;36.86;25.78;99299.19;1666970;84;20188;-71
2022/08/30 06:56:15;;;;;;;;;;;;;;;36.98;25.65;99300.02;1668546;84;22157;-69
2022/08/30 06:58:41;;;;;;;;;;;;;;;37.15;25.48;99300.34;1649602;86;20100;-69
2022/08/30 07:01:13;;;;;;;;;;;;;;;37.31;25.28;99297.04;1656229;84;20141;-68
2022/08/30 07:03:39;;;;;;;;;;;;;;;37.42;25.13;99297.39;1686856;84;20709;-68
2022/08/30 07:06:06;;;;;;;;;;;;;;;37.56;24.78;99297.81;1667990;84;20188;-70
2022/08/30 07:08:32;;;;;;;;;;;;;;;37.68;24.66;99295.78;1680334;84;21176;-69
2022/08/30 07:10:59;;;;;;;;;;;;;;;37.85;24.49;99304.39;1671172;84;20459;-68
2022/08/30 07:13:27;;;;;;;;;;;;;;;37.94;24.32;99302.85;1671106;84;20098;-70
2022/08/30 07:15:54;;;;;;;;;;;;;;;38.06;24.19;99298.64;1654510;84;20378;-68
2022/08/30 07:21:07;;;;;;;;;;;;;;;38.33;23.99;99306.11;1684587;84;21276;-70
2022/08/30 07:23:34;;;;;;;;;;;;;;;38.54;23.68;99304.45;1669694;84;20188;-67
2022/08/30 07:26:04;;;;;;;;;;;;;;;38.60;23.56;99305.22;1669796;84;20122;-68
2022/08/30 07:28:30;;;;;;;;;;;;;;;38.66;23.28;99305.19;1666360;84;20126;-69
2022/08/30 07:30:57;;;;;;;;;;;;;;;38.65;23.29;99298.00;1664026;84;20209;-70
2022/08/30 07:33:23;;;;;;;;;;;;;;;38.67;23.13;99301.80;1662270;84;21245;-69
2022/08/30 07:35:49;;;;;;;;;;;;;;;38.62;23.28;99298.72;1651072;86;20088;-70
2022/08/30 07:38:16;;;;;;;;;;;;;;;38.79;23.19;99302.55;1654357;86;20130;-69
2022/08/30 07:40:42;;;;;;;;;;;;;;;38.98;22.83;99308.72;1635373;86;20824;-70
2022/08/30 07:43:08;;;;;;;;;;;;;;;39.07;22.70;99304.36;1637010;86;20175;-70
2022/08/30 07:45:37;;;;;;;;;;;;;;;39.27;22.35;99308.81;1652528;86;21808;-70
2022/08/30 07:48:04;;;;;;;;;;;;;;;39.41;22.33;99310.52;1650293;86;20128;-70
2022/08/30 07:50:31;;;;;;;;;;;;;;;39.42;22.22;99317.09;1659280;86;20111;-75
2022/08/30 07:52:58;;;;;;;;;;;;;;;39.36;22.15;99319.97;1647104;86;20101;-70
2022/08/30 07:55:24;;;;;;;;;;;;;;;39.39;22.15;99322.02;1668528;86;20167;-70
2022/08/30 07:57:50;;;;;;;;;;;;;;;39.44;21.97;99314.77;1636872;86;21821;-70
2022/08/30 08:00:17;;;;;;;;;;;;;;;39.53;21.94;99320.11;1654803;86;20121;-69
2022/08/30 08:02:44;;;;;;;;;;;;;;;39.17;21.87;99314.34;1636816;86;20150;-70
2022/08/30 08:05:10;;;;;;;;;;;;;;;38.48;22.11;99317.02;1656993;86;20096;-70
2022/08/30 08:07:39;;;;;;;;;;;;;;;37.70;22.80;99312.10;1660747;86;20098;-69
2022/08/30 08:10:06;;;;;;;;;;;;;;;36.96;23.54;99315.37;1642485;86;21120;-70
2022/08/30 08:12:33;;;;;;;;;;;;;;;36.74;23.84;99318.58;1642099;86;20093;-71
2022/08/30 08:15:00;;;;;;;;;;;;;;;36.88;23.94;99310.16;1642104;86;20105;-70
2022/08/30 08:17:26;;;;;;;;;;;;;;;37.22;23.83;99318.57;1641564;86;20252;-71
2022/08/30 08:19:53;;;;;;;;;;;;;;;37.51;23.53;99315.52;1643477;86;20145;-70
2022/08/30 08:22:19;;;;;;;;;;;;;;;37.73;23.29;99316.14;1639931;86;21158;-69
2022/08/30 08:24:46;;;;;;;;;;;;;;;37.94;22.97;99318.94;1635399;86;20437;-68
2022/08/30 08:27:12;;;;;;;;;;;;;;;38.19;22.64;99312.67;1645468;86;20098;-70
2022/08/30 08:29:38;;;;;;;;;;;;;;;38.34;22.45;99306.34;1641590;86;20122;-70
2022/08/30 08:32:04;;;;;;;;;;;;;;;38.67;22.22;99313.73;1640579;86;20459;-69
2022/08/30 08:34:31;;;;;;;;;;;;;;;39.03;21.65;99311.83;1641459;86;21167;-71
2022/08/30 08:36:57;;;;;;;;;;;;;;;39.30;21.12;99311.67;1701674;83;20173;-69
2022/08/30 08:39:23;;;;;;;;;;;;;;;39.29;20.68;99311.45;1682641;83;20525;-69
2022/08/30 08:42:16;;;;;;;;;;;;;;;39.32;20.72;99309.91;1679338;84;20119;-71
2022/08/30 08:45:09;;;;;;;;;;;;;;;39.39;20.44;99305.91;1635304;84;20119;-70
2022/08/30 08:47:39;;;;;;;;;;;;;;;39.60;20.68;99308.33;1678509;84;21112;-72
2022/08/30 08:50:14;;;;;;;;;;;;;;;39.83;20.01;99305.05;1677790;84;20334;-69
2022/08/30 08:55:40;;;;;;;;;;;;;;;40.04;19.37;99309.08;1644548;85;20092;-70
2022/08/30 08:58:06;;;;;;;;;;;;;;;40.19;19.55;99307.92;1643121;85;20114;-69
2022/08/30 09:00:33;;;;;;;;;;;;;;;40.18;19.17;99311.91;1675747;85;21055;-69
2022/08/30 09:03:00;;;;;;;;;;;;;;;40.11;19.22;99310.36;1660749;85;20127;-69
2022/08/30 09:05:30;;;;;;;;;;;;;;;40.15;19.43;99309.86;1673855;85;20187;-71
2022/08/30 09:08:01;;;;;;;;;;;;;;;40.22;19.34;99315.55;1670683;85;20138;-70
2022/08/30 09:10:39;;;;;;;;;;;;;;;40.42;19.33;99309.54;1795881;78;20177;-71
2022/08/30 09:13:06;;;;;;;;;;;;;;;40.45;19.15;99315.77;1779527;80;20538;-69
2022/08/30 09:15:33;;;;;;;;;;;;;;;40.22;19.31;99312.18;1771588;80;21584;-69
2022/08/30 09:18:05;;;;;;;;;;;;;;;39.96;19.30;99314.27;1764626;80;20144;-69
2022/08/30 09:20:35;;;;;;;;;;;;;;;40.06;19.27;99315.66;1790018;79;20106;-68
2022/08/30 09:23:17;;;;;;;;;;;;;;;40.39;19.20;99303.31;1763920;80;20088;-70
2022/08/30 09:25:51;;;;;;;;;;;;;;;40.53;18.86;99308.36;1782977;80;20156;-73
2022/08/30 09:28:24;;;;;;;;;;;;;;;40.16;18.40;99319.22;1760952;80;21538;-69
2022/08/30 09:31:06;;;;;;;;;;;;;;;39.87;18.53;99318.43;1769515;80;20083;-69
2022/08/30 09:33:33;;;;;;;;;;;;;;;39.76;18.76;99309.09;1750218;80;20409;-73
2022/08/30 09:36:15;;;;;;;;;;;;;;;39.75;18.85;99301.90;1777399;80;20114;-71
2022/08/30 09:38:41;;;;;;;;;;;;;;;39.64;19.10;99304.47;1734219;81;20117;-70
2022/08/30 09:41:41;;;;;;;;;;;;;;;39.17;19.25;99305.98;1754287;80;21145;-68
2022/08/30 09:44:16;;;;;;;;;;;;;;;39.03;19.68;99308.47;1751106;80;20073;-67
2022/08/30 09:46:54;;;;;;;;;;;;;;;39.12;19.53;99304.08;1781676;80;20429;-68
2022/08/30 09:49:40;;;;;;;;;;;;;;;39.20;19.52;99302.52;1760043;81;20080;-68
2022/08/30 09:52:36;;;;;;;;;;;;;;;39.31;19.72;99306.92;1760007;81;20080;-70
2022/08/30 09:55:09;;;;;;;;;;;;;;;39.46;19.55;99306.05;1764340;80;21227;-69
2022/08/30 09:57:42;;;;;;;;;;;;;;;39.62;19.38;99302.64;1729904;81;20174;-69
2022/08/30 10:00:18;;;;;;;;;;;;;;;39.82;19.37;99295.88;1751860;81;20136;-69
2022/08/30 10:03:07;;;;;;;;;;;;;;;39.97;19.23;99306.11;1760074;81;20120;-68
2022/08/30 10:05:43;;;;;;;;;;;;;;;39.71;19.35;99297.64;1760740;80;20450;-68
2022/08/30 10:08:29;;;;;;;;;;;;;;;38.93;19.87;99305.45;1784512;80;21150;-69
2022/08/30 10:11:02;;;;;;;;;;;;;;;38.34;20.55;99300.80;1773325;80;20116;-68
2022/08/30 10:13:55;;;;;;;;;;;;;;;38.36;20.82;99299.03;1749861;81;20309;-68
2022/08/30 10:16:32;;;;;;;;;;;;;;;38.46;20.77;99288.80;1762591;79;20081;-68
2022/08/30 10:19:28;;;;;;;;;;;;;;;38.52;20.69;99291.50;1755433;80;20221;-70
2022/08/30 10:21:58;;;;;;;;;;;;;;;38.59;20.61;99295.27;1750445;80;21173;-69
2022/08/30 10:24:37;;;;;;;;;;;;;;;38.82;20.47;99297.64;1707258;83;20126;-71
2022/08/30 10:27:28;;;;;;;;;;;;;;;38.96;20.03;99293.58;1712364;83;20455;-67
2022/08/30 10:30:04;;;;;;;;;;;;;;;38.97;19.80;99289.63;1712469;84;20447;-70
2022/08/30 10:32:36;;;;;;;;;;;;;;;38.96;19.87;99287.44;1713957;82;20149;-69
2022/08/30 10:35:20;;;;;;;;;;;;;;;38.90;19.85;99283.34;1710636;82;21276;-68
2022/08/30 10:37:59;;;;;;;;;;;;;;;38.88;19.85;99278.70;1694154;82;20470;-69
2022/08/30 10:43:43;;;;;;;;;;;;;;;38.91;20.19;99279.38;1703647;82;20103;-70
2022/08/30 10:46:19;;;;;;;;;;;;;;;39.07;20.11;99276.55;1694035;84;20129;-69
2022/08/30 10:48:45;;;;;;;;;;;;;;;38.87;20.29;99268.20;1712991;82;21138;-71
2022/08/30 10:51:34;;;;;;;;;;;;;;;38.45;20.55;99272.70;1711716;82;21248;-71
2022/08/30 10:54:10;;;;;;;;;;;;;;;37.93;20.68;99270.14;1711913;82;20176;-69
2022/08/30 10:56:38;;;;;;;;;;;;;;;37.36;21.26;99276.02;1719511;83;20133;-70
2022/08/30 10:59:04;;;;;;;;;;;;;;;37.19;21.42;99265.77;1693418;82;20113;-69
2022/08/30 11:01:49;;;;;;;;;;;;;;;36.86;21.56;99265.94;1695616;82;21137;-68
2022/08/30 11:04:46;;;;;;;;;;;;;;;36.62;21.90;99265.95;1712471;82;20140;-70
2022/08/30 11:07:28;;;;;;;;;;;;;;;36.98;21.51;99261.77;1724746;82;20130;-69
2022/08/30 11:10:04;;;;;;;;;;;;;;;37.52;20.88;99262.23;1701491;83;20101;-73
2022/08/30 11:12:51;;;;;;;;;;;;;;;38.02;20.66;99253.30;1660769;84;20193;-69
2022/08/30 11:15:20;;;;;;;;;;;;;;;38.26;20.41;99255.91;1701445;83;20568;-70
2022/08/30 11:17:56;;;;;;;;;;;;;;;38.14;20.22;99249.06;1716240;82;20092;-69
2022/08/30 11:20:26;;;;;;;;;;;;;;;37.85;20.29;99251.66;1699940;83;20117;-70
2022/08/30 11:23:21;;;;;;;;;;;;;;;37.52;20.58;99251.14;1674335;84;20093;-70
2022/08/30 11:26:00;;;;;;;;;;;;;;;37.17;20.92;99243.95;1697433;83;20448;-73
2022/08/30 11:28:40;;;;;;;;;;;;;;;36.91;21.58;99250.45;1701655;83;21029;-70
2022/08/30 11:31:21;;;;;;;;;;;;;;;36.82;21.36;99246.98;1726871;82;20099;-71
2022/08/30 11:33:50;;;;;;;;;;;;;;;36.61;21.90;99249.11;1697753;84;20405;-72
2022/08/30 11:36:34;;;;;;;;;;;;;;;36.36;22.17;99247.69;1697619;84;20090;-73
2022/08/30 11:39:04;;;;;;;;;;;;;;;36.11;22.77;99254.34;1697668;84;20448;-72
2022/08/30 11:41:34;;;;;;;;;;;;;;;35.80;22.98;99258.98;1697040;84;21145;-70
2022/08/30 11:44:16;;;;;;;;;;;;;;;35.40;23.26;99263.42;1697581;84;20110;-72
2022/08/30 11:46:42;;;;;;;;;;;;;;;35.15;23.48;99255.56;1679042;84;20099;-71
2022/08/30 11:49:13;;;;;;;;;;;;;;;34.97;23.42;99258.20;1698073;84;20126;-74
2022/08/30 11:51:48;;;;;;;;;;;;;;;34.92;23.80;99257.02;1695066;83;20161;-74
2022/08/30 11:54:24;;;;;;;;;;;;;;;34.78;24.17;99262.57;1697559;84;21135;-71
2022/08/30 11:57:10;;;;;;;;;;;;;;;34.51;24.53;99264.63;1695656;84;20090;-71
2022/08/30 11:59:46;;;;;;;;;;;;;;;34.18;24.72;99261.45;1683899;84;20106;-68
2022/08/30 12:02:38;;;;;;;;;;;;;;;33.88;25.05;99253.08;1697727;84;20075;-71
2022/08/30 12:05:05;;;;;;;;;;;;;;;33.68;25.42;99257.91;1669371;84;20096;-71
2022/08/30 12:07:58;;;;;;;;;;;;;;;33.50;25.98;99251.56;1696679;84;21169;-70
2022/08/30 12:10:58;;;;;;;;;;;;;;;33.45;25.76;99252.32;1697416;83;20106;-71
2022/08/30 12:13:38;;;;;;;;;;;;;;;33.19;25.79;99250.92;1696873;84;20126;-70
2022/08/30 12:16:18;;;;;;;;;;;;;;;32.94;26.49;99252.52;1697546;84;20456;-71
2022/08/30 12:18:49;;;;;;;;;;;;;;;32.85;27.00;99253.65;1697638;84;20126;-69
2022/08/30 12:21:22;;;;;;;;;;;;;;;32.78;27.10;99251.35;1678496;84;21145;-70
2022/08/30 12:24:12;;;;;;;;;;;;;;;32.63;27.57;99244.92;1697529;84;20146;-71
2022/08/30 12:26:41;;;;;;;;;;;;;;;32.47;27.77;99256.09;1681931;84;20137;-73
2022/08/30 12:29:11;;;;;;;;;;;;;;;32.26;28.06;99252.30;1697565;84;20106;-72
2022/08/30 12:31:46;;;;;;;;;;;;;;;32.08;28.21;99258.85;1697769;84;20102;-73
2022/08/30 12:34:38;;;;;;;;;;;;;;;31.87;28.36;99248.11;1697641;84;21891;-70
2022/08/30 12:37:27;;;;;;;;;;;;;;;31.69;28.55;99250.77;1696023;84;20134;-71
2022/08/30 12:40:12;;;;;;;;;;;;;;;31.51;28.89;99253.16;1697528;84;20171;-72
2022/08/30 12:42:41;;;;;;;;;;;;;;;31.34;29.01;99249.44;1697474;84;20444;-71
2022/08/30 12:45:12;;;;;;;;;;;;;;;31.12;29.27;99242.80;1697595;84;20436;-72
2022/08/30 12:47:48;;;;;;;;;;;;;;;30.97;29.81;99246.45;1697710;84;22088;-71
2022/08/30 12:50:23;;;;;;;;;;;;;;;30.83;30.07;99243.70;1682137;85;20087;-70
2022/08/30 12:53:01;;;;;;;;;;;;;;;30.65;29.78;99247.40;1697588;84;20129;-72
2022/08/30 12:55:33;;;;;;;;;;;;;;;30.45;30.13;99237.64;1697667;84;20098;-70
2022/08/30 12:58:07;;;;;;;;;;;;;;;30.30;30.41;99242.59;1679393;84;20175;-70
2022/08/30 13:00:38;;;;;;;;;;;;;;;30.19;30.75;99233.75;1694659;84;21107;-70
2022/08/30 13:03:24;;;;;;;;;;;;;;;30.16;31.33;99234.94;1697664;84;20121;-70
2022/08/30 13:05:50;;;;;;;;;;;;;;;30.14;30.99;99233.06;1697571;84;20145;-71
2022/08/30 13:08:19;;;;;;;;;;;;;;;30.08;31.10;99232.89;1697504;84;20075;-71
2022/08/30 13:10:52;;;;;;;;;;;;;;;29.99;31.12;99227.29;1700211;84;20098;-71
2022/08/30 13:13:27;;;;;;;;;;;;;;;29.90;31.34;99225.80;1703000;84;21873;-70
2022/08/30 13:15:54;;;;;;;;;;;;;;;29.82;31.46;99232.01;1702389;84;20122;-71